createdAt,value
2022-10-29T00:01:06.587Z,101552.75
2022-10-29T00:03:36.077Z,101550.38
2022-10-29T00:06:07.072Z,101560.25
2022-10-29T00:08:40.411Z,101559.38
2022-10-29T00:11:11.747Z,101559.34
2022-10-29T00:13:39.870Z,101571.78
2022-10-29T00:16:15.124Z,101563.16
2022-10-29T00:18:42.763Z,101569.94
2022-10-29T00:21:19.239Z,101568.16
2022-10-29T00:23:46.881Z,101573.09
2022-10-29T00:26:15.030Z,101576.88
2022-10-29T00:28:44.767Z,101574.41
2022-10-29T00:31:19.335Z,101572.84
2022-10-29T00:33:48.953Z,101585.53
2022-10-29T00:36:24.319Z,101582.91
2022-10-29T00:38:53.986Z,101582.06
2022-10-29T00:41:26.555Z,101596.13
2022-10-29T00:44:21.541Z,101579.53
2022-10-29T00:46:57.559Z,101591.16
2022-10-29T00:49:26.637Z,101600.28
2022-10-29T00:51:53.786Z,101595.22
2022-10-29T00:54:23.589Z,101596.69
2022-10-29T00:56:58.441Z,101601.75
2022-10-29T00:59:26.039Z,101604.91
2022-10-29T01:01:53.925Z,101609.47
2022-10-29T01:04:23.988Z,101610.25
2022-10-29T01:06:57.447Z,101624.16
2022-10-29T01:09:26.954Z,101616.91
2022-10-29T01:12:21.705Z,101618.75
2022-10-29T01:15:00.293Z,101614.31
2022-10-29T01:18:11.435Z,101622.94
2022-10-29T01:21:08.388Z,101625.03
2022-10-29T01:23:50.645Z,101627.78
2022-10-29T01:26:58.875Z,101624.03
2022-10-29T01:29:56.638Z,101625.13
2022-10-29T01:32:33.039Z,101618.47
2022-10-29T01:35:13.159Z,101623.19
2022-10-29T01:38:11.655Z,101625.53
2022-10-29T01:41:00.899Z,101624.09
2022-10-29T01:43:51.346Z,101631.28
2022-10-29T01:46:43.272Z,101626.34
2022-10-29T01:49:18.761Z,101633.00
2022-10-29T01:51:47.273Z,101637.38
2022-10-29T01:54:14.126Z,101639.53
2022-10-29T01:56:43.235Z,101629.28
2022-10-29T01:59:22.975Z,101639.34
2022-10-29T02:02:05.688Z,101642.25
2022-10-29T02:04:55.146Z,101646.38
2022-10-29T02:07:50.425Z,101653.09
2022-10-29T02:10:38.307Z,101644.34
2022-10-29T02:13:10.165Z,101650.38
2022-10-29T02:15:51.252Z,101647.28
2022-10-29T02:18:18.412Z,101651.34
2022-10-29T02:20:46.699Z,101656.59
2022-10-29T02:23:16.901Z,101658.66
2022-10-29T02:25:46.292Z,101654.88
2022-10-29T02:28:13.325Z,101657.69
2022-10-29T02:30:40.298Z,101658.34
2022-10-29T02:33:07.151Z,101655.47
2022-10-29T02:35:34.007Z,101655.41
2022-10-29T02:38:03.475Z,101651.63
2022-10-29T02:40:30.325Z,101642.91
2022-10-29T02:42:57.486Z,101654.44
2022-10-29T02:45:24.491Z,101658.22
2022-10-29T02:48:00.904Z,101647.03
2022-10-29T02:50:27.765Z,101625.28
2022-10-29T02:52:54.593Z,101629.44
2022-10-29T02:55:21.380Z,101621.34
2022-10-29T02:57:48.194Z,101619.16
2022-10-29T03:00:17.996Z,101619.91
2022-10-29T03:02:47.942Z,101619.44
2022-10-29T03:05:16.955Z,101614.34
2022-10-29T03:07:43.862Z,101630.06
2022-10-29T03:10:12.831Z,101626.09
2022-10-29T03:12:42.289Z,101611.72
2022-10-29T03:15:14.560Z,101618.53
2022-10-29T03:17:43.915Z,101617.56
2022-10-29T03:20:10.955Z,101635.56
2022-10-29T03:22:37.759Z,101636.41
2022-10-29T03:25:04.984Z,101628.75
2022-10-29T03:27:42.253Z,101631.78
2022-10-29T03:30:12.107Z,101629.31
2022-10-29T03:32:47.919Z,101626.00
2022-10-29T03:35:16.075Z,101628.53
2022-10-29T03:37:42.936Z,101627.78
2022-10-29T03:40:10.597Z,101620.41
2022-10-29T03:42:39.091Z,101624.00
2022-10-29T03:45:10.362Z,101625.34
2022-10-29T03:47:41.629Z,101623.84
2022-10-29T03:50:11.466Z,101624.59
2022-10-29T03:52:42.848Z,101626.66
2022-10-29T03:55:09.938Z,101633.47
2022-10-29T03:57:38.992Z,101642.69
2022-10-29T04:00:12.725Z,101626.38
2022-10-29T04:02:39.799Z,101629.88
2022-10-29T04:05:11.305Z,101622.97
2022-10-29T04:07:38.149Z,101621.63
2022-10-29T04:10:05.560Z,101612.94
2022-10-29T04:12:32.485Z,101610.69
2022-10-29T04:14:59.280Z,101611.81
2022-10-29T04:17:26.162Z,101620.31
2022-10-29T04:19:53.083Z,101625.16
2022-10-29T04:30:52.906Z,101633.88
2022-10-29T04:33:20.367Z,101640.19
2022-10-29T04:35:56.596Z,101631.13
2022-10-29T04:38:24.748Z,101641.97
2022-10-29T04:40:51.678Z,101642.75
2022-10-29T04:43:23.146Z,101636.75
2022-10-29T04:45:54.313Z,101642.59
2022-10-29T04:48:22.295Z,101644.72
2022-10-29T04:50:49.512Z,101647.69
2022-10-29T04:53:19.479Z,101653.34
2022-10-29T04:55:49.089Z,101656.22
2022-10-29T04:58:18.848Z,101658.53
2022-10-29T05:00:46.765Z,101644.97
2022-10-29T05:03:14.126Z,101661.09
2022-10-29T05:05:41.721Z,101653.16
2022-10-29T05:08:11.036Z,101648.66
2022-10-29T05:10:44.940Z,101638.63
2022-10-29T05:13:13.137Z,101639.16
2022-10-29T05:15:49.135Z,101639.13
2022-10-29T05:18:19.735Z,101632.75
2022-10-29T05:20:46.671Z,101642.00
2022-10-29T05:23:14.019Z,101636.75
2022-10-29T05:25:42.159Z,101637.34
2022-10-29T05:28:21.131Z,101637.97
2022-10-29T05:30:51.176Z,101635.16
2022-10-29T05:33:25.308Z,101634.19
2022-10-29T05:35:52.495Z,101635.47
2022-10-29T05:38:19.798Z,101641.47
2022-10-29T05:40:46.898Z,101644.88
2022-10-29T05:43:20.310Z,101646.00
2022-10-29T05:45:47.435Z,101648.16
2022-10-29T05:48:14.520Z,101648.59
2022-10-29T05:50:41.498Z,101655.75
2022-10-29T05:53:16.752Z,101662.13
2022-10-29T05:55:43.736Z,101652.44
2022-10-29T05:58:16.109Z,101650.72
2022-10-29T06:00:45.342Z,101655.97
2022-10-29T06:03:18.219Z,101658.72
2022-10-29T06:05:50.189Z,101663.81
2022-10-29T06:08:18.175Z,101662.78
2022-10-29T06:10:47.662Z,101660.59
2022-10-29T06:13:22.311Z,101663.16
2022-10-29T06:15:52.794Z,101672.63
2022-10-29T06:18:21.912Z,101669.97
2022-10-29T06:20:50.823Z,101680.66
2022-10-29T06:23:19.946Z,101684.91
2022-10-29T06:25:46.814Z,101688.50
2022-10-29T06:28:16.399Z,101688.16
2022-10-29T06:30:49.049Z,101690.06
2022-10-29T06:33:21.970Z,101695.63
2022-10-29T06:35:48.897Z,101680.66
2022-10-29T06:38:17.114Z,101693.38
2022-10-29T06:40:44.277Z,101706.13
2022-10-29T06:43:12.612Z,101699.34
2022-10-29T06:45:39.578Z,101691.34
2022-10-29T06:48:08.977Z,101690.00
2022-10-29T06:50:38.008Z,101701.41
2022-10-29T06:53:09.982Z,101697.44
2022-10-29T06:55:36.890Z,101694.88
2022-10-29T06:58:14.002Z,101685.31
2022-10-29T07:00:42.245Z,101692.19
2022-10-29T07:03:15.805Z,101701.72
2022-10-29T07:05:43.050Z,101707.41
2022-10-29T07:08:10.616Z,101695.38
2022-10-29T07:10:40.807Z,101681.41
2022-10-29T07:13:12.622Z,101682.13
2022-10-29T07:15:42.455Z,101693.69
2022-10-29T07:18:12.259Z,101695.75
2022-10-29T07:20:42.179Z,101704.06
2022-10-29T07:23:10.394Z,101700.00
2022-10-29T07:25:39.432Z,101696.34
2022-10-29T07:28:11.594Z,101697.38
2022-10-29T07:30:38.585Z,101696.53
2022-10-29T07:33:05.411Z,101707.00
2022-10-29T07:35:34.585Z,101713.38
2022-10-29T07:38:10.841Z,101718.97
2022-10-29T07:40:40.600Z,101728.84
2022-10-29T07:43:08.771Z,101727.78
2022-10-29T07:45:35.630Z,101724.44
2022-10-29T07:48:09.159Z,101732.97
2022-10-29T07:50:38.248Z,101730.47
2022-10-29T07:53:09.387Z,101738.66
2022-10-29T07:55:38.790Z,101730.28
2022-10-29T07:58:12.076Z,101743.00
2022-10-29T08:00:40.881Z,101728.84
2022-10-29T08:03:10.597Z,101730.41
2022-10-29T08:05:37.421Z,101733.09
2022-10-29T08:08:07.322Z,101731.28
2022-10-29T08:10:37.602Z,101736.63
2022-10-29T08:13:07.658Z,101737.03
2022-10-29T08:15:39.455Z,101732.69
2022-10-29T08:18:20.553Z,101733.03
2022-10-29T08:20:47.486Z,101738.47
2022-10-29T08:23:14.855Z,101733.00
2022-10-29T08:25:42.976Z,101728.03
2022-10-29T08:28:25.576Z,101722.88
2022-10-29T08:30:58.087Z,101708.78
2022-10-29T08:33:24.880Z,101717.50
2022-10-29T08:35:52.704Z,101714.38
2022-10-29T08:38:23.338Z,101718.97
2022-10-29T08:41:05.596Z,101706.97
2022-10-29T08:44:25.562Z,101704.91
2022-10-29T08:47:23.381Z,101710.03
2022-10-29T08:50:23.177Z,101699.22
2022-10-29T08:53:19.405Z,101695.09
2022-10-29T08:55:43.730Z,101693.31
2022-10-29T08:58:28.052Z,101699.34
2022-10-29T09:01:00.697Z,101690.50
2022-10-29T09:03:31.558Z,101694.09
2022-10-29T09:06:07.397Z,101695.00
2022-10-29T09:09:18.005Z,101691.34
2022-10-29T09:11:53.327Z,101691.97
2022-10-29T09:14:49.082Z,101690.53
2022-10-29T09:17:33.809Z,101697.66
2022-10-29T09:20:12.509Z,101687.53
2022-10-29T09:23:01.270Z,101686.28
2022-10-29T09:25:41.598Z,101682.16
2022-10-29T09:28:52.136Z,101678.47
2022-10-29T09:31:43.020Z,101674.66
2022-10-29T09:34:35.872Z,101677.06
2022-10-29T09:37:10.483Z,101687.09
2022-10-29T09:39:44.518Z,101688.75
2022-10-29T09:42:38.807Z,101686.25
2022-10-29T09:45:14.692Z,101696.69
2022-10-29T09:48:07.003Z,101684.50
2022-10-29T09:50:54.552Z,101688.19
2022-10-29T09:53:21.491Z,101682.72
2022-10-29T09:55:57.108Z,101686.81
2022-10-29T09:58:30.422Z,101678.63
2022-10-29T10:01:00.346Z,101679.47
2022-10-29T10:03:49.024Z,101685.47
2022-10-29T10:06:22.065Z,101680.78
2022-10-29T10:09:05.151Z,101673.38
2022-10-29T10:11:44.273Z,101663.19
2022-10-29T10:14:22.565Z,101662.28
2022-10-29T10:17:02.873Z,101657.72
2022-10-29T10:19:33.807Z,101660.66
2022-10-29T10:22:19.880Z,101659.00
2022-10-29T10:24:47.129Z,101654.59
2022-10-29T10:27:19.994Z,101644.56
2022-10-29T10:30:07.031Z,101639.72
2022-10-29T10:32:33.888Z,101644.44
2022-10-29T10:35:02.832Z,101638.78
2022-10-29T10:37:33.659Z,101650.44
2022-10-29T10:40:05.622Z,101641.97
2022-10-29T10:42:42.823Z,101629.69
2022-10-29T10:45:17.271Z,101643.88
2022-10-29T10:47:52.070Z,101634.16
2022-10-29T10:50:31.523Z,101627.63
2022-10-29T10:53:03.484Z,101624.94
2022-10-29T10:55:37.976Z,101633.03
2022-10-29T10:58:22.754Z,101623.72
2022-10-29T11:00:57.727Z,101623.03
2022-10-29T11:03:41.746Z,101622.34
2022-10-29T11:06:12.770Z,101622.38
2022-10-29T11:08:58.447Z,101617.41
2022-10-29T11:11:45.588Z,101615.34
2022-10-29T11:14:36.686Z,101616.63
2022-10-29T11:17:26.881Z,101619.72
2022-10-29T11:20:04.435Z,101618.44
2022-10-29T11:22:53.474Z,101621.22
2022-10-29T11:25:31.352Z,101624.75
2022-10-29T11:28:15.553Z,101618.72
2022-10-29T11:31:03.956Z,101619.84
2022-10-29T11:33:53.180Z,101617.13
2022-10-29T11:36:24.597Z,101609.47
2022-10-29T11:38:57.627Z,101611.50
2022-10-29T11:41:57.064Z,101593.63
2022-10-29T11:44:24.292Z,101591.00
2022-10-29T11:47:03.903Z,101583.22
2022-10-29T11:49:53.370Z,101581.53
2022-10-29T11:52:41.137Z,101580.50
2022-10-29T11:55:56.614Z,101572.28
2022-10-29T11:58:39.636Z,101571.53
2022-10-29T12:01:36.596Z,101568.31
2022-10-29T12:04:47.923Z,101564.66
2022-10-29T12:07:57.137Z,101563.19
2022-10-29T12:10:59.487Z,101558.81
2022-10-29T12:13:47.927Z,101558.78
2022-10-29T12:16:41.655Z,101567.00
2022-10-29T12:19:32.715Z,101569.13
2022-10-29T12:22:22.922Z,101558.69
2022-10-29T12:25:16.310Z,101562.91
2022-10-29T12:28:38.970Z,101558.69
2022-10-29T12:31:30.635Z,101554.81
2022-10-29T12:33:57.389Z,101548.00
2022-10-29T12:36:34.310Z,101543.22
2022-10-29T12:39:02.624Z,101542.97
2022-10-29T12:41:44.436Z,101544.22
2022-10-29T12:44:45.268Z,101547.56
2022-10-29T12:47:30.848Z,101542.34
2022-10-29T12:49:57.897Z,101543.53
2022-10-29T12:53:03.295Z,101535.50
2022-10-29T12:55:34.879Z,101539.84
2022-10-29T12:58:45.938Z,101536.34
2022-10-29T13:01:57.533Z,101532.53
2022-10-29T13:04:32.598Z,101530.16
2022-10-29T13:07:05.602Z,101515.56
2022-10-29T13:09:37.074Z,101519.66
2022-10-29T13:12:12.824Z,101519.28
2022-10-29T13:14:48.887Z,101513.41
2022-10-29T13:17:23.171Z,101502.25
2022-10-29T13:19:59.561Z,101508.50
2022-10-29T13:22:52.149Z,101500.84
2022-10-29T13:25:41.549Z,101497.69
2022-10-29T13:28:08.376Z,101502.97
2022-10-29T13:30:38.177Z,101500.75
2022-10-29T13:33:23.754Z,101499.38
2022-10-29T13:36:04.510Z,101500.94
2022-10-29T13:39:04.382Z,101510.81
2022-10-29T13:41:42.560Z,101507.91
2022-10-29T13:44:14.127Z,101507.44
2022-10-29T13:47:01.136Z,101502.63
2022-10-29T13:49:48.747Z,101493.44
2022-10-29T13:52:21.394Z,101497.66
2022-10-29T13:55:06.271Z,101495.13
2022-10-29T13:58:22.736Z,101486.59
2022-10-29T14:00:57.153Z,101491.25
2022-10-29T14:03:54.814Z,101500.22
2022-10-29T14:06:29.752Z,101500.91
2022-10-29T14:09:15.543Z,101506.75
2022-10-29T14:11:56.059Z,101511.66
2022-10-29T14:15:02.206Z,101518.69
2022-10-29T14:17:29.059Z,101511.00
2022-10-29T14:19:55.883Z,101507.13
2022-10-29T14:22:40.984Z,101503.84
2022-10-29T14:25:36.386Z,101496.09
2022-10-29T14:28:27.780Z,101493.50
2022-10-29T14:31:07.221Z,101491.09
2022-10-29T14:33:38.788Z,101497.25
2022-10-29T14:36:09.499Z,101480.59
2022-10-29T14:38:45.886Z,101484.88
2022-10-29T14:41:16.597Z,101475.88
2022-10-29T14:43:58.427Z,101474.63
2022-10-29T14:46:30.229Z,101475.69
2022-10-29T14:49:02.773Z,101468.09
2022-10-29T14:51:50.545Z,101468.16
2022-10-29T14:54:26.955Z,101461.28
2022-10-29T14:57:04.443Z,101475.41
2022-10-29T14:59:33.662Z,101473.53
2022-10-29T15:02:36.472Z,101462.22
2022-10-29T15:05:06.288Z,101458.09
2022-10-29T15:07:38.150Z,101456.28
2022-10-29T15:10:26.552Z,101450.19
2022-10-29T15:12:53.800Z,101457.06
2022-10-29T15:15:25.776Z,101464.56
2022-10-29T15:18:05.918Z,101459.50
2022-10-29T15:20:40.975Z,101459.78
2022-10-29T15:23:34.170Z,101457.59
2022-10-29T15:26:21.999Z,101462.75
2022-10-29T15:28:52.698Z,101461.22
2022-10-29T15:31:30.816Z,101468.72
2022-10-29T15:34:10.296Z,101481.53
2022-10-29T15:36:52.881Z,101470.41
2022-10-29T15:39:22.925Z,101477.41
2022-10-29T15:41:55.773Z,101474.25
2022-10-29T15:44:40.666Z,101477.25
2022-10-29T15:47:28.611Z,101477.81
2022-10-29T15:49:59.091Z,101477.88
2022-10-29T15:52:33.711Z,101475.53
2022-10-29T15:55:02.919Z,101465.13
2022-10-29T15:57:31.515Z,101462.97
2022-10-29T16:02:38.046Z,101463.97
2022-10-29T16:05:05.473Z,101457.59
2022-10-29T16:07:34.806Z,101466.59
2022-10-29T16:10:01.838Z,101462.75
2022-10-29T16:12:31.321Z,101459.88
2022-10-29T16:14:58.222Z,101463.13
2022-10-29T16:17:25.072Z,101453.16
2022-10-29T16:19:54.081Z,101460.53
2022-10-29T16:22:28.759Z,101459.91
2022-10-29T16:24:56.255Z,101453.88
2022-10-29T16:27:23.157Z,101454.94
2022-10-29T16:29:49.986Z,101453.16
2022-10-29T16:32:19.754Z,101443.94
2022-10-29T16:34:46.674Z,101434.84
2022-10-29T16:37:17.027Z,101434.91
2022-10-29T16:39:44.379Z,101429.16
2022-10-29T16:42:32.153Z,101429.63
2022-10-29T16:44:59.162Z,101433.81
2022-10-29T16:47:28.578Z,101426.03
2022-10-29T16:49:55.538Z,101423.78
2022-10-29T16:52:28.903Z,101425.44
2022-10-29T16:54:56.987Z,101425.91
2022-10-29T16:57:26.541Z,101422.34
2022-10-29T16:59:53.462Z,101426.81
2022-10-29T17:02:20.401Z,101429.78
2022-10-29T17:04:49.764Z,101423.91
2022-10-29T17:07:17.457Z,101428.41
2022-10-29T17:09:44.414Z,101422.25
2022-10-29T17:12:11.268Z,101428.00
2022-10-29T17:14:40.352Z,101428.63
2022-10-29T17:17:07.277Z,101431.56
2022-10-29T17:19:38.766Z,101440.47
2022-10-29T17:22:07.964Z,101445.34
2022-10-29T17:24:34.818Z,101443.63
2022-10-29T17:27:04.091Z,101448.50
2022-10-29T17:29:36.293Z,101457.22
2022-10-29T17:32:05.331Z,101453.19
2022-10-29T17:34:32.449Z,101450.84
2022-10-29T17:37:02.234Z,101455.09
2022-10-29T17:39:30.848Z,101459.72
2022-10-29T17:42:00.839Z,101455.28
2022-10-29T17:44:27.685Z,101459.53
2022-10-29T17:46:55.209Z,101467.56
2022-10-29T17:49:22.356Z,101464.41
2022-10-29T17:51:52.339Z,101465.88
2022-10-29T17:54:21.274Z,101467.38
2022-10-29T17:56:52.146Z,101464.59
2022-10-29T17:59:21.206Z,101462.50
2022-10-29T18:01:51.189Z,101459.31
2022-10-29T18:04:18.157Z,101452.97
2022-10-29T18:06:45.139Z,101457.41
2022-10-29T18:09:17.236Z,101449.78
2022-10-29T18:11:51.001Z,101448.94
2022-10-29T18:14:17.971Z,101453.59
2022-10-29T18:16:45.777Z,101449.38
2022-10-29T18:19:14.840Z,101448.53
2022-10-29T18:21:41.763Z,101453.19
2022-10-29T18:24:11.226Z,101447.47
2022-10-29T18:26:38.188Z,101448.94
2022-10-29T18:29:14.147Z,101439.19
2022-10-29T18:31:44.917Z,101439.41
2022-10-29T18:34:17.025Z,101445.94
2022-10-29T18:36:47.580Z,101442.91
2022-10-29T18:39:14.477Z,101447.78
2022-10-29T18:41:41.323Z,101443.63
2022-10-29T18:44:08.212Z,101441.72
2022-10-29T18:46:35.230Z,101436.66
2022-10-29T18:49:02.126Z,101433.47
2022-10-29T18:51:32.777Z,101437.06
2022-10-29T18:54:02.732Z,101432.41
2022-10-29T18:56:34.522Z,101438.28
2022-10-29T18:59:01.442Z,101436.56
2022-10-29T19:01:38.890Z,101428.13
2022-10-29T19:04:08.602Z,101422.63
2022-10-29T19:06:37.130Z,101426.22
2022-10-29T19:09:09.814Z,101432.97
2022-10-29T19:11:37.286Z,101433.63
2022-10-29T19:14:11.963Z,101434.00
2022-10-29T19:16:38.830Z,101433.63
2022-10-29T19:19:12.485Z,101423.44
2022-10-29T19:21:43.256Z,101425.53
2022-10-29T19:24:14.764Z,101419.81
2022-10-29T19:26:44.543Z,101428.91
2022-10-29T19:29:15.238Z,101419.59
2022-10-29T19:31:46.455Z,101410.72
2022-10-29T19:34:15.746Z,101406.44
2022-10-29T19:36:45.534Z,101415.28
2022-10-29T19:39:14.621Z,101418.28
2022-10-29T19:41:43.886Z,101418.28
2022-10-29T19:44:10.716Z,101419.78
2022-10-29T19:46:37.518Z,101426.31
2022-10-29T19:49:04.356Z,101421.88
2022-10-29T19:51:31.160Z,101422.28
2022-10-29T19:53:58.628Z,101418.69
2022-10-29T19:56:27.670Z,101416.56
2022-10-29T19:58:59.239Z,101422.81
2022-10-29T20:01:26.306Z,101426.00
2022-10-29T20:03:57.097Z,101417.53
2022-10-29T20:06:26.667Z,101428.94
2022-10-29T20:08:53.483Z,101419.19
2022-10-29T20:11:20.313Z,101414.50
2022-10-29T20:13:47.318Z,101413.84
2022-10-29T20:16:18.682Z,101409.88
2022-10-29T20:18:47.105Z,101423.38
2022-10-29T20:21:21.079Z,101417.44
2022-10-29T20:23:47.935Z,101406.13
2022-10-29T20:26:14.765Z,101410.31
2022-10-29T20:28:43.737Z,101414.75
2022-10-29T20:31:24.408Z,101408.91
2022-10-29T20:33:56.740Z,101406.50
2022-10-29T20:36:24.617Z,101403.50
2022-10-29T20:38:55.921Z,101407.03
2022-10-29T20:41:23.080Z,101402.44
2022-10-29T20:43:57.647Z,101405.78
2022-10-29T20:46:27.928Z,101408.88
2022-10-29T20:48:55.009Z,101406.59
2022-10-29T20:51:23.036Z,101409.13
2022-10-29T20:53:53.442Z,101408.06
2022-10-29T20:56:23.742Z,101406.22
2022-10-29T20:58:50.778Z,101405.63
2022-10-29T21:01:20.564Z,101404.72
2022-10-29T21:03:51.101Z,101406.81
2022-10-29T21:06:20.933Z,101403.03
2022-10-29T21:08:51.481Z,101405.38
2022-10-29T21:11:20.240Z,101414.06
2022-10-29T21:13:50.176Z,101407.31
2022-10-29T21:16:28.383Z,101405.53
2022-10-29T21:19:01.249Z,101406.38
2022-10-29T21:21:31.619Z,101418.19
2022-10-29T21:24:00.907Z,101411.66
2022-10-29T21:26:28.634Z,101417.81
2022-10-29T21:28:55.662Z,101408.47
2022-10-29T21:31:23.832Z,101412.81
2022-10-29T21:33:52.467Z,101408.97
2022-10-29T21:36:19.833Z,101415.16
2022-10-29T21:38:46.684Z,101407.53
2022-10-29T21:41:15.984Z,101413.91
2022-10-29T21:43:42.777Z,101410.13
2022-10-29T21:46:09.694Z,101405.88
2022-10-29T21:48:38.959Z,101400.75
2022-10-29T21:51:15.054Z,101399.91
2022-10-29T21:53:44.050Z,101393.06
2022-10-29T21:56:15.535Z,101396.44
2022-10-29T21:58:45.675Z,101387.44
2022-10-29T22:01:18.097Z,101389.13
2022-10-29T22:03:46.979Z,101389.91
2022-10-29T22:06:21.390Z,101389.00
2022-10-29T22:08:56.292Z,101395.34
2022-10-29T22:11:26.887Z,101382.09
2022-10-29T22:13:54.530Z,101383.53
2022-10-29T22:16:22.607Z,101386.53
2022-10-29T22:18:49.913Z,101377.91
2022-10-29T22:21:20.732Z,101370.28
2022-10-29T22:23:59.851Z,101361.09
2022-10-29T22:26:30.546Z,101365.41
2022-10-29T22:29:01.913Z,101371.47
2022-10-29T22:31:28.784Z,101357.44
2022-10-29T22:33:55.638Z,101348.31
2022-10-29T22:36:26.926Z,101343.56
2022-10-29T22:38:58.552Z,101342.25
2022-10-29T22:41:26.505Z,101339.97
2022-10-29T22:43:53.421Z,101337.34
2022-10-29T22:46:22.103Z,101340.53
2022-10-29T22:48:51.905Z,101340.63
2022-10-29T22:51:27.795Z,101334.78
2022-10-29T22:53:54.824Z,101343.75
2022-10-29T22:56:31.730Z,101342.97
2022-10-29T22:58:59.095Z,101334.34
2022-10-29T23:01:32.542Z,101344.97
2022-10-29T23:04:00.183Z,101337.03
2022-10-29T23:06:28.224Z,101339.03
2022-10-29T23:09:01.739Z,101339.63
2022-10-29T23:11:32.153Z,101338.63
2022-10-29T23:14:00.857Z,101327.22
2022-10-29T23:16:31.242Z,101330.22
2022-10-29T23:19:05.051Z,101323.25
2022-10-29T23:21:33.099Z,101315.53
2022-10-29T23:23:59.906Z,101321.38
2022-10-29T23:26:27.343Z,101318.50
2022-10-29T23:28:56.733Z,101312.63
2022-10-29T23:31:29.723Z,101307.94
2022-10-29T23:33:58.350Z,101310.41
2022-10-29T23:36:27.533Z,101311.81
2022-10-29T23:39:02.014Z,101313.56
2022-10-29T23:41:30.827Z,101300.31
2022-10-29T23:43:58.271Z,101312.22
2022-10-29T23:46:27.505Z,101300.00
2022-10-29T23:48:54.748Z,101309.91
2022-10-29T23:51:21.694Z,101308.97
2022-10-29T23:53:51.614Z,101302.97
2022-10-29T23:56:21.662Z,101295.28
2022-10-29T23:58:48.607Z,101293.97
